Akutan, Alaska
Current Conditions -  °F | °C
As of 5:55 AM on Monday 22 Dec 2014 (Local Time) from PAUT Reporting Station
Light Rain Light Rain  
Wind Chill: 21°   Ceiling: 4500
Heat Index: 33°   Visibility: 7mi
Dew Point: 27°   Wind: 18mph
Humidity: 79%   Direction: 330°NNW
Pressure: 29.83"   Gusts: 30mph
Location:  54.14°N, 165.77°W
Report Text: PAUT 221455Z AUTO 33016G26KT 7SM -RA SCT027 SCT037 OVC045 00/M03 A2983 RMK AO2 T00041029
Loading
Personal Weather Stations






























Interactive Weather Map New forecast layout! Learn more

10-Day Weather Forecast

Advertisements
Track Severe Weather on mobile